Time,TemperatureF,DewpointF,PressureIn,WindDirection,WindDirectionDegrees,WindSpeedMPH,WindSpeedGustMPH,Humidity,HourlyPrecipIn,Conditions,Clouds,dailyrainin,SoftwareType,DateUTC
2013-03-20 00:14:00,55.7,46.0,29.63,West,274,0.0,-999.0,71,-99.99,,,0.03,weatherlink.com 1.10,2013-03-20 07:14:00,
2013-03-20 00:29:00,55.5,47.0,29.63,SSW,196,0.0,-999.0,73,-99.99,,,0.03,weatherlink.com 1.10,2013-03-20 07:29:00,
2013-03-20 00:44:00,56.1,44.0,29.64,West,271,0.0,-999.0,65,-99.99,,,0.03,weatherlink.com 1.10,2013-03-20 07:44:00,
2013-03-20 00:59:00,56.7,45.0,29.64,West,279,2.0,-999.0,66,-99.99,,,0.03,weatherlink.com 1.10,2013-03-20 07:59:00,
2013-03-20 01:14:00,56.1,44.0,29.64,West,267,0.0,-999.0,65,-99.99,,,0.03,weatherlink.com 1.10,2013-03-20 08:14:00,
2013-03-20 01:29:00,56.0,44.0,29.65,West,269,6.0,-999.0,64,-99.99,,,0.03,weatherlink.com 1.10,2013-03-20 08:29:00,
2013-03-20 01:44:00,56.0,43.0,29.65,WNW,303,0.0,-999.0,63,-99.99,,,0.03,weatherlink.com 1.10,2013-03-20 08:44:00,
2013-03-20 01:59:00,56.1,43.0,29.65,NNE,15,0.0,-999.0,62,-99.99,,,0.03,weatherlink.com 1.10,2013-03-20 08:59:00,
2013-03-20 02:14:00,55.6,45.0,29.65,NNE,26,0.0,-999.0,68,-99.99,,,0.03,weatherlink.com 1.10,2013-03-20 09:14:00,
2013-03-20 02:29:00,54.9,44.0,29.65,North,350,0.0,-999.0,67,-99.99,,,0.03,weatherlink.com 1.10,2013-03-20 09:29:00,
2013-03-20 02:44:00,55.0,45.0,29.65,NE,36,2.0,-999.0,69,-99.99,,,0.03,weatherlink.com 1.10,2013-03-20 09:44:00,
2013-03-20 02:59:00,54.5,44.0,29.64,NNE,19,0.0,-999.0,69,-99.99,,,0.03,weatherlink.com 1.10,2013-03-20 09:59:00,
2013-03-20 03:14:00,54.0,45.0,29.63,ENE,57,0.0,-999.0,72,-99.99,,,0.03,weatherlink.com 1.10,2013-03-20 10:14:00,
2013-03-20 03:29:00,53.5,44.0,29.64,East,84,0.0,-999.0,71,-99.99,,,0.03,weatherlink.com 1.10,2013-03-20 10:29:00,
2013-03-20 03:44:00,53.1,45.0,29.64,NE,49,0.0,-999.0,74,-99.99,,,0.03,weatherlink.com 1.10,2013-03-20 10:44:00,
2013-03-20 03:59:00,52.8,45.0,29.64,NE,49,0.0,-999.0,74,-99.99,,,0.03,weatherlink.com 1.10,2013-03-20 10:59:00,
2013-03-20 04:14:00,52.5,44.0,29.63,NE,50,0.0,-999.0,74,-99.99,,,0.03,weatherlink.com 1.10,2013-03-20 11:14:00,
2013-03-20 04:29:00,52.3,44.0,29.64,NE,51,0.0,-999.0,73,-99.99,,,0.03,weatherlink.com 1.10,2013-03-20 11:29:00,
2013-03-20 04:44:00,52.1,44.0,29.64,NE,51,0.0,-999.0,74,-99.99,,,0.03,weatherlink.com 1.10,2013-03-20 11:44:00,
2013-03-20 04:59:00,52.0,45.0,29.62,NE,51,0.0,-999.0,76,-99.99,,,0.03,weatherlink.com 1.10,2013-03-20 11:59:00,
2013-03-20 05:14:00,51.6,44.0,29.63,NE,51,0.0,-999.0,75,-99.99,,,0.03,weatherlink.com 1.10,2013-03-20 12:14:00,
2013-03-20 05:29:00,51.5,44.0,29.63,NE,51,0.0,-999.0,75,-99.99,,,0.03,weatherlink.com 1.10,2013-03-20 12:29:00,
2013-03-20 05:44:00,51.2,44.0,29.63,NE,51,0.0,-999.0,75,-99.99,,,0.03,weatherlink.com 1.10,2013-03-20 12:44:00,
2013-03-20 05:59:00,50.9,43.0,29.63,NE,51,0.0,-999.0,75,-99.99,,,0.03,weatherlink.com 1.10,2013-03-20 12:59:00,
2013-03-20 06:14:00,51.1,43.0,29.63,NE,51,0.0,-999.0,75,-99.99,,,0.03,weatherlink.com 1.10,2013-03-20 13:14:00,
2013-03-20 06:29:00,51.2,43.0,29.63,NE,51,0.0,-999.0,74,-99.99,,,0.03,weatherlink.com 1.10,2013-03-20 13:29:00,
2013-03-20 06:44:00,51.4,43.0,29.63,NE,56,0.0,-999.0,73,-99.99,,,0.03,weatherlink.com 1.10,2013-03-20 13:44:00,
2013-03-20 06:59:00,51.1,43.0,29.63,ENE,57,0.0,-999.0,75,-99.99,,,0.03,weatherlink.com 1.10,2013-03-20 13:59:00,
2013-03-20 07:14:00,50.3,44.0,29.63,ENE,57,0.0,-999.0,78,-99.99,,,0.03,weatherlink.com 1.10,2013-03-20 14:14:00,
2013-03-20 07:29:00,50.0,43.0,29.63,ENE,57,0.0,-999.0,78,-99.99,,,0.03,weatherlink.com 1.10,2013-03-20 14:29:00,
2013-03-20 07:44:00,50.0,44.0,29.63,ENE,57,0.0,-999.0,79,-99.99,,,0.03,weatherlink.com 1.10,2013-03-20 14:44:00,
2013-03-20 07:59:00,50.1,44.0,29.65,NNW,329,0.0,-999.0,80,-99.99,,,0.03,weatherlink.com 1.10,2013-03-20 14:59:00,
2013-03-20 08:14:00,50.5,45.0,29.66,NNW,329,0.0,-999.0,80,-99.99,,,0.03,weatherlink.com 1.10,2013-03-20 15:14:00,
2013-03-20 08:29:00,51.0,46.0,29.66,WSW,245,1.0,-999.0,82,-99.99,,,0.03,weatherlink.com 1.10,2013-03-20 15:29:00,
2013-03-20 08:44:00,51.6,45.0,29.66,NNW,329,0.0,-999.0,79,-99.99,,,0.03,weatherlink.com 1.10,2013-03-20 15:44:00,
2013-03-20 08:59:00,52.9,47.0,29.66,West,279,0.0,-999.0,80,-99.99,,,0.03,weatherlink.com 1.10,2013-03-20 15:59:00,
2013-03-20 09:14:00,54.2,46.0,29.66,SW,236,0.0,-999.0,73,-99.99,,,0.03,weatherlink.com 1.10,2013-03-20 16:14:00,
2013-03-20 09:29:00,55.4,46.0,29.67,SW,221,0.0,-999.0,70,-99.99,,,0.03,weatherlink.com 1.10,2013-03-20 16:29:00,
2013-03-20 09:44:00,55.7,47.0,29.67,SSW,192,0.0,-999.0,72,-99.99,,,0.03,weatherlink.com 1.10,2013-03-20 16:44:00,
2013-03-20 09:59:00,55.7,48.0,29.67,SE,140,0.0,-999.0,75,-99.99,,,0.03,weatherlink.com 1.10,2013-03-20 16:59:00,
2013-03-20 10:14:00,55.7,46.0,29.66,SSW,200,0.0,-999.0,70,-99.99,,,0.03,weatherlink.com 1.10,2013-03-20 17:14:00,
2013-03-20 10:29:00,55.8,48.0,29.66,West,278,0.0,-999.0,75,-99.99,,,0.03,weatherlink.com 1.10,2013-03-20 17:29:00,
2013-03-20 10:44:00,56.0,47.0,29.66,SSE,167,0.0,-999.0,71,-99.99,,,0.03,weatherlink.com 1.10,2013-03-20 17:44:00,
2013-03-20 10:59:00,57.0,47.0,29.66,South,187,0.0,-999.0,69,-99.99,,,0.03,weatherlink.com 1.10,2013-03-20 17:59:00,
2013-03-20 11:14:00,59.0,50.0,29.66,North,5,3.0,-999.0,71,-99.99,,,0.03,weatherlink.com 1.10,2013-03-20 18:14:00,
2013-03-20 11:29:00,58.5,48.0,29.66,North,360,0.0,-999.0,69,-99.99,,,0.03,weatherlink.com 1.10,2013-03-20 18:29:00,
2013-03-20 11:59:00,56.9,49.0,29.66,North,350,0.0,-999.0,76,-99.99,,,0.03,weatherlink.com 1.10,2013-03-20 18:59:00,
2013-03-20 12:13:00,57.0,48.0,29.67,NNE,24,0.0,-999.0,73,-99.99,,,0.03,weatherlink.com 1.10,2013-03-20 19:13:00,
2013-03-20 12:29:00,57.3,48.0,29.67,NW,304,3.0,-999.0,72,-99.99,,,0.03,weatherlink.com 1.10,2013-03-20 19:29:00,
2013-03-20 12:44:00,57.2,45.0,29.67,WNW,303,0.0,-999.0,65,-99.99,,,0.03,weatherlink.com 1.10,2013-03-20 19:44:00,
2013-03-20 12:59:00,56.6,44.0,29.67,NW,309,0.0,-999.0,64,-99.99,,,0.03,weatherlink.com 1.10,2013-03-20 19:59:00,
2013-03-20 13:14:00,56.1,44.0,29.68,WNW,292,0.0,-999.0,65,-99.99,,,0.03,weatherlink.com 1.10,2013-03-20 20:14:00,
2013-03-20 13:29:00,57.1,44.0,29.67,WNW,294,0.0,-999.0,61,-99.99,,,0.03,weatherlink.com 1.10,2013-03-20 20:29:00,
2013-03-20 13:44:00,57.9,43.0,29.66,NE,34,0.0,-999.0,57,-99.99,,,0.03,weatherlink.com 1.10,2013-03-20 20:44:00,
2013-03-20 13:59:00,55.7,44.0,29.67,ENE,57,0.0,-999.0,64,-99.99,,,0.03,weatherlink.com 1.10,2013-03-20 20:59:00,
2013-03-20 14:14:00,55.7,45.0,29.67,North,360,0.0,-999.0,67,-99.99,,,0.03,weatherlink.com 1.10,2013-03-20 21:14:00,
2013-03-20 14:29:00,55.5,46.0,29.67,NNE,27,0.0,-999.0,71,-99.99,,,0.03,weatherlink.com 1.10,2013-03-20 21:29:00,
2013-03-20 14:44:00,54.4,47.0,29.67,NE,41,0.0,-999.0,76,-99.99,,,0.03,weatherlink.com 1.10,2013-03-20 21:44:00,
2013-03-20 14:59:00,53.9,48.0,29.66,NW,310,0.0,-999.0,81,-99.99,,,0.03,weatherlink.com 1.10,2013-03-20 21:59:00,
2013-03-20 15:14:00,54.1,49.0,29.66,WNW,295,0.0,-999.0,82,-99.99,,,0.03,weatherlink.com 1.10,2013-03-20 22:14:00,
2013-03-20 15:29:00,54.3,49.0,29.66,West,271,0.0,-999.0,82,-99.99,,,0.03,weatherlink.com 1.10,2013-03-20 22:29:00,
2013-03-20 15:44:00,54.6,50.0,29.65,SSW,204,0.0,-999.0,83,-99.99,,,0.03,weatherlink.com 1.10,2013-03-20 22:44:00,
2013-03-20 15:59:00,55.1,48.0,29.65,SSW,208,0.0,-999.0,78,-99.99,,,0.03,weatherlink.com 1.10,2013-03-20 22:59:00,
2013-03-20 16:14:00,55.1,50.0,29.65,NE,45,0.0,-999.0,82,-99.99,,,0.03,weatherlink.com 1.10,2013-03-20 23:14:00,
2013-03-20 16:29:00,54.4,49.0,29.66,NNE,12,0.0,-999.0,83,-99.99,,,0.03,weatherlink.com 1.10,2013-03-20 23:29:00,
2013-03-20 16:44:00,54.2,50.0,29.66,NW,309,0.0,-999.0,84,-99.99,,,0.03,weatherlink.com 1.10,2013-03-20 23:44:00,
2013-03-20 16:59:00,54.6,51.0,29.66,NW,309,0.0,-999.0,87,-99.99,,,0.03,weatherlink.com 1.10,2013-03-20 23:59:00,
2013-03-20 17:14:00,55.0,51.0,29.66,NW,318,0.0,-999.0,87,-99.99,,,0.03,weatherlink.com 1.10,2013-03-21 00:14:00,
2013-03-20 17:29:00,55.2,51.0,29.66,NNE,13,0.0,-999.0,85,-99.99,,,0.03,weatherlink.com 1.10,2013-03-21 00:29:00,
2013-03-20 17:44:00,54.8,50.0,29.66,North,360,0.0,-999.0,85,-99.99,,,0.03,weatherlink.com 1.10,2013-03-21 00:44:00,
2013-03-20 17:59:00,54.8,50.0,29.66,North,9,0.0,-999.0,85,-99.99,,,0.03,weatherlink.com 1.10,2013-03-21 00:59:00,
2013-03-20 18:14:00,54.8,50.0,29.66,NNE,16,0.0,-999.0,85,-99.99,,,0.03,weatherlink.com 1.10,2013-03-21 01:14:00,
2013-03-20 18:29:00,54.1,50.0,29.65,SW,234,0.0,-999.0,87,-99.99,,,0.03,weatherlink.com 1.10,2013-03-21 01:29:00,
2013-03-20 18:44:00,53.8,50.0,29.65,SW,215,0.0,-999.0,87,-99.99,,,0.03,weatherlink.com 1.10,2013-03-21 01:44:00,
2013-03-20 18:59:00,53.6,50.0,29.65,SW,217,0.0,-999.0,88,-99.99,,,0.03,weatherlink.com 1.10,2013-03-21 01:59:00,
2013-03-20 19:14:00,53.3,50.0,29.66,SW,217,0.0,-999.0,88,-99.99,,,0.00,weatherlink.com 1.10,2013-03-21 02:14:00,
2013-03-20 19:29:00,53.0,50.0,29.66,SSW,208,0.0,-999.0,88,-99.99,,,0.00,weatherlink.com 1.10,2013-03-21 02:29:00,
2013-03-20 19:44:00,52.7,50.0,29.66,SSW,197,0.0,-999.0,89,-99.99,,,0.00,weatherlink.com 1.10,2013-03-21 02:44:00,
2013-03-20 19:59:00,52.7,50.0,29.66,SSW,207,0.0,-999.0,90,-99.99,,,0.00,weatherlink.com 1.10,2013-03-21 02:59:00,
2013-03-20 20:14:00,52.5,50.0,29.66,SSW,207,0.0,-999.0,90,-99.99,,,0.00,weatherlink.com 1.10,2013-03-21 03:14:00,
2013-03-20 20:29:00,52.4,50.0,29.66,SSW,208,1.0,-999.0,90,-99.99,,,0.00,weatherlink.com 1.10,2013-03-21 03:29:00,
2013-03-20 20:44:00,52.3,50.0,29.66,West,261,0.0,-999.0,91,-99.99,,,0.00,weatherlink.com 1.10,2013-03-21 03:44:00,
2013-03-20 20:59:00,52.2,50.0,29.66,West,261,0.0,-999.0,91,-99.99,,,0.00,weatherlink.com 1.10,2013-03-21 03:59:00,
2013-03-20 21:14:00,52.1,50.0,29.66,West,261,0.0,-999.0,91,-99.99,,,0.00,weatherlink.com 1.10,2013-03-21 04:14:00,
2013-03-20 21:29:00,52.0,50.0,29.67,West,261,0.0,-999.0,91,-99.99,,,0.00,weatherlink.com 1.10,2013-03-21 04:29:00,
2013-03-20 21:44:00,52.0,50.0,29.67,West,261,0.0,-999.0,91,-99.99,,,0.00,weatherlink.com 1.10,2013-03-21 04:44:00,
2013-03-20 21:59:00,51.7,49.0,29.68,West,261,0.0,-999.0,91,-99.99,,,0.00,weatherlink.com 1.10,2013-03-21 04:59:00,
2013-03-20 22:14:00,51.4,49.0,29.68,West,264,0.0,-999.0,92,-99.99,,,0.00,weatherlink.com 1.10,2013-03-21 05:14:00,
2013-03-20 22:29:00,51.0,49.0,29.68,NW,325,0.0,-999.0,92,-99.99,,,0.00,weatherlink.com 1.10,2013-03-21 05:29:00,
2013-03-20 22:44:00,50.7,49.0,29.68,NNW,343,4.0,-999.0,92,-99.99,,,0.00,weatherlink.com 1.10,2013-03-21 05:44:00,
2013-03-20 22:59:00,49.8,48.0,29.68,NNW,342,0.0,-999.0,93,-99.99,,,0.00,weatherlink.com 1.10,2013-03-21 05:59:00,
2013-03-20 23:14:00,49.4,48.0,29.68,NNE,17,0.0,-999.0,93,-99.99,,,0.00,weatherlink.com 1.10,2013-03-21 06:14:00,
2013-03-20 23:29:00,49.3,48.0,29.68,North,355,0.0,-999.0,94,-99.99,,,0.00,weatherlink.com 1.10,2013-03-21 06:29:00,
2013-03-20 23:44:00,49.2,48.0,29.67,NNW,348,5.0,-999.0,94,-99.99,,,0.00,weatherlink.com 1.10,2013-03-21 06:44:00,
2013-03-20 23:59:00,48.8,47.0,29.67,North,355,0.0,-999.0,94,-99.99,,,0.01,weatherlink.com 1.10,2013-03-21 06:59:00,